Jacksonville, Illinois
Current Conditions -  °F | °C
As of 12:55 AM on Friday 31 Oct 2014 (Local Time) from KIJX Reporting Station
Overcast Overcast  
Wind Chill: 44°   Ceiling: 12000
Heat Index: 44°   Visibility: 7mi
Dew Point: 42°   Wind: 3mph
Humidity: 92%   Direction: 360°N
Pressure: 30.09"   Gusts: NA
Location:  39.75°N, 90.23°W
Report Text: KIJX 310555Z AUTO 36003KT 7SM SCT085 OVC120 07/05 A3009 RMK AO2 T00660054 10106 20061 401250021
Loading
Personal Weather Stations






























Interactive Weather Map New forecast layout! Learn more

10-Day Weather Forecast

Advertisements
Track Severe Weather on mobile